Aeroboteco Virtual Airlines! Uma nuvem a frente.



 INFORMAÇÕES METEOROLÓGICAS
METAR FOR EGPO
ADDS - METARS form results

(0359 UTC 27 May 2019)
Data provider http://aviationweather.gov/metar/data/
 
METAR text: EGPO 270350Z AUTO 32005KT 9999 NCD 04/02 Q1006
Conditions at: EGPO (STORNOWAY , GB) observed 0350 UTC 27 May 2019
Temperature: 4.0°C (39°F)
Dewpoint: 2.0°C (36°F) [RH = 87%]
Pressure (altimeter): 29.70 inches Hg (1006.0 mb)
Winds: from the NW (320 degrees) at 6 MPH (5 knots; 2.6 m/s)
Visibility: 6 or more miles (10+ km)
Ceiling: at least 12,000 feet AGL
Clouds: sky clear below 12,000 feet AGL
Weather: no significant weather observed at this time

METAR text: EGPO 270320Z AUTO 36006KT 300V010 9999 NCD 05/04 Q1006
Conditions at: EGPO (STORNOWAY , GB) observed 0320 UTC 27 May 2019
Temperature: 5.0°C (41°F)
Dewpoint: 4.0°C (39°F) [RH = 93%]
Pressure (altimeter): 29.70 inches Hg (1006.0 mb)
Winds: from the N (360 degrees) at 7 MPH (6 knots; 3.1 m/s)
Visibility: 6 or more miles (10+ km)
Ceiling: at least 12,000 feet AGL
Clouds: sky clear below 12,000 feet AGL
Weather: no significant weather observed at this time

Forecast for: EGPO (STORNOWAY , GB)
Text: TAF EGPO 270155Z 2703/2712 36009KT 9999 SCT020
Forecast period: 0300 to 1200 UTC 27 May 2019
Forecast type: FROM: standard forecast or significant change
Winds: from the N (360 degrees) at 10 MPH (9 knots; 4.6 m/s)
Visibility: 6 or more miles 10+ km)
Ceiling: at least 12,000 feet AGL
Clouds: scattered clouds at 2000 feet AGL
Weather: no significant weather forecast for this period
Text: PROB30
Forecast period: 0300 to 1200 UTC 27 May 2019
Forecast type: TEMPORARY: The following changes expected for less than half the time period
Visibility: 4 miles (7 km)
Ceiling: 1400 feet AGL
Clouds: broken clouds at 1400 feet AGL
Weather: SHRA  (rain showers)

 MAPA DO AEROPORTO

 INFORMAÇÕES DA PISTA
Pista 07 Tamanho da pista 3281 ft Largura da pista 75 ft
Elevação da pista 26 ft Ranhura da pista 0 ft Proa da pista 60
Pista 25 Tamanho da pista 3281 ft Largura da pista 75 ft
Elevação da pista 21 ft Ranhura da pista 0 ft Proa da pista 240
Pista 18 Tamanho da pista 7218 ft Largura da pista 151 ft
Elevação da pista 16 ft Ranhura da pista 394 ft Proa da pista 174
Pista 36 Tamanho da pista 7218 ft Largura da pista 151 ft
Elevação da pista 15 ft Ranhura da pista 0 ft Proa da pista 354

 FREQUÊNCIAS DO AEROPORTO
Tipo AFIS Nome AFIS Frequência 123.5 MHZ
Tipo APP Nome APP Frequência 123.5 MHZ
Tipo ATIS Nome ATIS Frequência 115.1 MHZ
Tipo TWR Nome TWR Frequência 123.5 MHZ

 AUXÍLIOS DE NAVEGAÇÃO PRÓXIMOS AO AEROPORTO
Tipo NDB-DME Nome Stornoway Frequência 431 KHZ
Tipo VOR-DME Nome Stornoway Frequência 115100 KHZ